Time;durP1;ratioP1;P1;durP2;ratioP2;P2;SDS_P1;SDS_P2;PMS_P1;PMS_P2;Temp;Humidity;BMP_temperature;BMP_pressure;BME280_temperature;BME280_humidity;BME280_pressure;Samples;Min_cycle;Max_cycle;Signal;HPM_P1;HPM_P2
2022/12/31 05:02:39;;;;;;;1.43;0.90;;;14.70;99.90;;;;;;4852875;29;20474;-74
2022/12/31 05:05:07;;;;;;;1.50;1.03;;;14.70;99.90;;;;;;4854868;29;20481;-74
2022/12/31 05:07:33;;;;;;;2.07;1.23;;;14.80;99.90;;;;;;4854088;29;20462;-74
2022/12/31 05:10:00;;;;;;;2.40;0.87;;;14.80;99.90;;;;;;4854157;29;20458;-74
2022/12/31 05:12:27;;;;;;;1.87;1.10;;;14.80;99.90;;;;;;4854726;29;20485;-74
2022/12/31 05:14:54;;;;;;;1.33;0.90;;;14.90;99.90;;;;;;4854958;29;20574;-74
2022/12/31 05:17:21;;;;;;;0.90;0.90;;;14.90;99.90;;;;;;4854213;29;20475;-74
2022/12/31 05:19:49;;;;;;;1.30;1.00;;;14.90;99.90;;;;;;4855210;29;20462;-74
2022/12/31 05:22:31;;;;;;;2.43;0.90;;;14.90;99.90;;;;;;4854700;29;20481;-74
2022/12/31 05:24:58;;;;;;;1.17;1.00;;;14.90;99.90;;;;;;4854583;29;20496;-74
2022/12/31 05:27:25;;;;;;;1.30;0.93;;;14.90;99.90;;;;;;4854192;29;21202;-74
2022/12/31 05:29:52;;;;;;;1.30;0.87;;;14.90;99.90;;;;;;4854880;29;20827;-74
2022/12/31 05:32:19;;;;;;;1.70;0.90;;;15.00;99.90;;;;;;4854048;29;20481;-74
2022/12/31 05:34:46;;;;;;;1.00;0.90;;;15.00;99.90;;;;;;4854594;29;20480;-74
2022/12/31 05:37:14;;;;;;;1.67;0.80;;;15.00;99.90;;;;;;4854050;29;20829;-74
2022/12/31 05:39:40;;;;;;;0.80;0.70;;;15.00;99.90;;;;;;4854531;29;20517;-74
2022/12/31 05:42:07;;;;;;;1.13;0.93;;;15.00;99.90;;;;;;4854332;29;20663;-74
2022/12/31 05:44:34;;;;;;;0.90;0.80;;;15.00;99.90;;;;;;4854282;29;20868;-74
2022/12/31 05:47:01;;;;;;;1.17;0.80;;;15.00;99.90;;;;;;4853765;29;20838;-74
2022/12/31 05:49:27;;;;;;;1.17;0.80;;;15.00;99.90;;;;;;4854375;29;20564;-74
2022/12/31 05:51:54;;;;;;;1.17;0.80;;;15.00;99.90;;;;;;4854237;29;20512;-74
2022/12/31 05:54:22;;;;;;;1.00;0.90;;;15.00;99.90;;;;;;4853863;29;20951;-74
2022/12/31 05:56:49;;;;;;;0.90;0.80;;;15.00;99.90;;;;;;4853781;29;20466;-74
2022/12/31 05:59:16;;;;;;;3.57;1.00;;;14.90;99.90;;;;;;4854425;29;20462;-74
2022/12/31 06:01:43;;;;;;;1.13;0.90;;;15.00;99.90;;;;;;4865116;29;20864;-74
2022/12/31 06:04:09;;;;;;;2.10;0.90;;;15.00;99.90;;;;;;4872414;29;20449;-74
2022/12/31 06:06:36;;;;;;;2.00;0.90;;;15.00;99.90;;;;;;4871698;29;20457;-74
2022/12/31 06:09:03;;;;;;;2.40;0.80;;;15.00;99.90;;;;;;4872637;29;20461;-74
2022/12/31 06:11:32;;;;;;;2.50;1.47;;;15.00;99.90;;;;;;4872243;29;20481;-74
2022/12/31 06:13:58;;;;;;;0.90;0.80;;;15.00;99.90;;;;;;4872409;29;20461;-74
2022/12/31 06:16:25;;;;;;;2.60;1.07;;;15.10;99.90;;;;;;4871800;29;20463;-73
2022/12/31 06:18:53;;;;;;;1.00;0.90;;;15.00;99.90;;;;;;4872298;29;20980;-74
2022/12/31 06:21:21;;;;;;;1.20;0.90;;;15.10;99.90;;;;;;4872088;29;20574;-74
2022/12/31 06:23:48;;;;;;;1.00;0.80;;;15.10;99.90;;;;;;4872333;29;20461;-74
2022/12/31 06:26:15;;;;;;;1.23;0.93;;;15.10;99.90;;;;;;4871702;29;20497;-74
2022/12/31 06:28:44;;;;;;;1.43;1.10;;;15.00;99.90;;;;;;4872432;29;20457;-73
2022/12/31 06:31:13;;;;;;;0.80;0.80;;;15.00;99.90;;;;;;4871696;29;20487;-74
2022/12/31 06:33:40;;;;;;;1.83;0.90;;;15.10;99.90;;;;;;4871785;29;20449;-74
2022/12/31 06:36:12;;;;;;;1.50;1.20;;;15.00;99.90;;;;;;4871539;29;20493;-74
2022/12/31 06:38:40;;;;;;;0.83;0.83;;;15.10;99.90;;;;;;4872117;29;20584;-74
2022/12/31 06:41:10;;;;;;;1.33;1.00;;;15.10;99.90;;;;;;4871930;29;20483;-74
2022/12/31 06:43:37;;;;;;;1.20;0.97;;;15.00;99.90;;;;;;4871758;29;20469;-74
2022/12/31 06:46:07;;;;;;;3.13;1.10;;;15.00;99.90;;;;;;4871536;29;20511;-74
2022/12/31 06:48:35;;;;;;;1.50;1.20;;;15.00;99.90;;;;;;4872377;29;20457;-74
2022/12/31 06:51:05;;;;;;;1.37;1.07;;;15.00;99.90;;;;;;4872052;29;20481;-74
2022/12/31 06:53:31;;;;;;;0.93;0.93;;;15.00;99.90;;;;;;4872355;29;20518;-74
2022/12/31 06:56:04;;;;;;;1.13;1.00;;;15.00;99.90;;;;;;4871215;29;21210;-74
2022/12/31 06:58:31;;;;;;;1.40;1.00;;;15.00;99.90;;;;;;4872165;29;20494;-74
2022/12/31 07:01:12;;;;;;;1.40;1.17;;;15.00;99.90;;;;;;4872059;29;20524;-73
2022/12/31 07:03:44;;;;;;;0.90;0.80;;;15.00;99.90;;;;;;4871897;29;20954;-72
2022/12/31 07:06:16;;;;;;;0.80;0.80;;;15.00;99.90;;;;;;4871231;29;20508;-73
2022/12/31 07:08:51;;;;;;;1.13;0.90;;;15.00;99.90;;;;;;4872235;29;20468;-73
2022/12/31 07:11:22;;;;;;;1.30;0.80;;;15.00;99.90;;;;;;4872322;29;20484;-71
2022/12/31 07:14:09;;;;;;;0.80;0.80;;;15.00;99.90;;;;;;4871474;29;20540;-73
2022/12/31 07:16:56;;;;;;;1.00;0.90;;;15.10;99.90;;;;;;4871074;29;20452;-72
2022/12/31 07:19:37;;;;;;;0.87;0.77;;;15.10;99.90;;;;;;4871397;29;20445;-73
2022/12/31 07:22:05;;;;;;;1.40;1.10;;;15.10;99.90;;;;;;4871529;29;21010;-73
2022/12/31 07:24:32;;;;;;;1.27;1.00;;;15.10;99.90;;;;;;4875098;29;20456;-73
2022/12/31 07:27:19;;;;;;;1.20;1.10;;;15.20;99.90;;;;;;4874492;29;20476;-73
2022/12/31 07:30:00;;;;;;;1.00;0.90;;;15.20;99.90;;;;;;4874704;29;20464;-72
2022/12/31 07:32:44;;;;;;;1.20;1.00;;;15.20;99.90;;;;;;4874919;29;20507;-73
2022/12/31 07:35:21;;;;;;;1.77;1.00;;;15.20;99.90;;;;;;4874667;29;20461;-72
2022/12/31 07:37:58;;;;;;;2.60;1.03;;;15.30;99.90;;;;;;4874342;29;20451;-71
2022/12/31 07:40:37;;;;;;;1.00;0.90;;;15.30;99.90;;;;;;4875418;29;20445;-73
2022/12/31 07:43:10;;;;;;;0.87;0.83;;;15.30;99.90;;;;;;4875169;29;20467;-73
2022/12/31 07:45:45;;;;;;;1.60;1.10;;;15.40;99.90;;;;;;4874654;29;20805;-71
2022/12/31 07:48:23;;;;;;;1.30;1.10;;;15.30;99.90;;;;;;4874208;29;20844;-73
2022/12/31 07:50:53;;;;;;;1.00;0.90;;;15.40;99.90;;;;;;4874571;29;20567;-73
2022/12/31 07:53:20;;;;;;;1.57;0.80;;;15.40;99.90;;;;;;4874951;29;20465;-73
2022/12/31 07:55:58;;;;;;;1.10;1.00;;;15.40;99.90;;;;;;4882959;29;20956;-73
2022/12/31 07:58:32;;;;;;;0.87;0.80;;;15.40;99.90;;;;;;4892805;29;20443;-73
2022/12/31 08:00:59;;;;;;;1.40;0.97;;;15.50;99.90;;;;;;4892689;29;20499;-73
2022/12/31 08:03:43;;;;;;;2.23;1.10;;;15.50;99.90;;;;;;4892691;29;20456;-73
2022/12/31 08:06:15;;;;;;;4.07;0.90;;;15.50;99.90;;;;;;4892610;29;20511;-71
2022/12/31 08:08:50;;;;;;;1.07;0.90;;;15.50;99.90;;;;;;4892639;29;20471;-73
2022/12/31 08:11:25;;;;;;;3.23;0.90;;;15.60;99.90;;;;;;4892865;29;20486;-73
2022/12/31 08:13:55;;;;;;;1.90;1.13;;;15.60;99.90;;;;;;4892676;29;20436;-73
2022/12/31 08:16:23;;;;;;;1.10;1.00;;;15.70;99.90;;;;;;4892106;29;20444;-74
2022/12/31 08:18:51;;;;;;;1.50;1.10;;;15.70;99.90;;;;;;4892410;29;20467;-73
2022/12/31 08:21:30;;;;;;;1.30;0.90;;;15.70;99.90;;;;;;4892464;29;20484;-71
2022/12/31 08:24:05;;;;;;;2.93;1.10;;;15.70;99.90;;;;;;4892261;29;21008;-73
2022/12/31 08:26:43;;;;;;;5.03;1.43;;;15.80;99.90;;;;;;4892499;29;20940;-73
2022/12/31 08:29:29;;;;;;;1.30;1.00;;;15.80;99.90;;;;;;4892470;29;20992;-73
2022/12/31 08:32:03;;;;;;;1.23;1.10;;;15.80;99.90;;;;;;4892229;29;20676;-73
2022/12/31 08:34:39;;;;;;;1.00;0.90;;;15.80;99.90;;;;;;4892112;29;20443;-73
2022/12/31 08:37:10;;;;;;;1.13;1.00;;;15.90;99.90;;;;;;4891838;29;20440;-73
2022/12/31 08:40:00;;;;;;;0.97;0.87;;;15.90;99.90;;;;;;4892705;29;20812;-73
2022/12/31 08:42:35;;;;;;;2.17;1.03;;;15.90;99.90;;;;;;4892437;29;20808;-73
2022/12/31 08:45:13;;;;;;;1.10;0.90;;;15.90;99.90;;;;;;4892001;29;20451;-72
2022/12/31 08:47:49;;;;;;;1.20;0.80;;;16.00;99.90;;;;;;4891776;29;20456;-73
2022/12/31 08:50:19;;;;;;;0.87;0.80;;;16.00;99.90;;;;;;4892039;29;20462;-73
2022/12/31 08:52:47;;;;;;;0.90;0.80;;;16.00;99.90;;;;;;4891861;29;20979;-73
2022/12/31 08:55:16;;;;;;;1.17;1.07;;;16.00;99.90;;;;;;4891563;29;20830;-73
2022/12/31 08:57:53;;;;;;;2.77;1.30;;;16.10;99.90;;;;;;4891346;29;20994;-73
2022/12/31 09:00:21;;;;;;;0.97;0.83;;;16.10;99.90;;;;;;4891789;29;20467;-73
2022/12/31 09:03:12;;;;;;;4.80;1.10;;;16.10;99.90;;;;;;4891799;29;20511;-73
2022/12/31 09:05:52;;;;;;;2.70;1.20;;;16.10;99.90;;;;;;4886714;29;20500;-73
2022/12/31 09:08:28;;;;;;;1.70;0.93;;;16.10;99.90;;;;;;4891661;29;20444;-73
2022/12/31 09:10:59;;;;;;;0.90;0.90;;;16.10;99.90;;;;;;4891939;29;20487;-73
2022/12/31 09:13:36;;;;;;;1.17;1.07;;;16.20;99.90;;;;;;4891914;29;20472;-73
2022/12/31 09:16:12;;;;;;;2.17;1.20;;;16.20;99.90;;;;;;4891015;29;20471;-73
2022/12/31 09:18:41;;;;;;;8.63;1.30;;;16.20;99.90;;;;;;4891429;29;20456;-73
2022/12/31 09:21:11;;;;;;;1.10;1.00;;;16.20;99.90;;;;;;4891444;29;20487;-71
2022/12/31 09:23:38;;;;;;;2.20;1.17;;;16.20;99.90;;;;;;4891276;29;20467;-73
2022/12/31 09:26:20;;;;;;;0.93;0.73;;;16.20;99.90;;;;;;4891085;29;21223;-73
2022/12/31 09:28:56;;;;;;;1.30;1.20;;;16.30;99.90;;;;;;4891140;29;20460;-72
2022/12/31 09:31:34;;;;;;;1.40;1.00;;;16.40;99.90;;;;;;4891555;29;20495;-73
2022/12/31 09:34:06;;;;;;;1.33;0.87;;;16.40;99.90;;;;;;4891519;29;20448;-73
2022/12/31 09:36:39;;;;;;;2.13;1.10;;;16.50;99.90;;;;;;4890867;29;20436;-71
2022/12/31 09:39:13;;;;;;;1.13;1.00;;;16.60;99.90;;;;;;4891051;29;20440;-73
2022/12/31 09:42:15;;;;;;;1.40;0.80;;;16.70;99.90;;;;;;4891027;29;21004;-73
2022/12/31 09:45:03;;;;;;;1.40;1.20;;;16.80;99.90;;;;;;4890664;29;20471;-73
2022/12/31 09:48:05;;;;;;;1.43;0.90;;;16.80;99.90;;;;;;4889750;29;20496;-73
2022/12/31 09:50:54;;;;;;;1.60;0.87;;;16.80;99.90;;;;;;4891135;29;20483;-73
2022/12/31 09:53:36;;;;;;;1.20;1.10;;;16.80;99.90;;;;;;4890894;29;20826;-73
2022/12/31 09:56:10;;;;;;;1.00;0.90;;;16.80;99.90;;;;;;4890124;29;21001;-73
2022/12/31 09:58:44;;;;;;;1.53;1.10;;;16.80;99.90;;;;;;4890968;29;20805;-73
2022/12/31 10:01:23;;;;;;;1.20;1.00;;;16.90;99.90;;;;;;4890548;29;20499;-73
2022/12/31 10:04:25;;;;;;;1.50;1.17;;;16.90;99.90;;;;;;4890862;29;20806;-71
2022/12/31 10:07:02;;;;;;;1.23;0.90;;;17.00;99.90;;;;;;4888617;29;21051;-73
2022/12/31 10:09:46;;;;;;;1.40;1.00;;;17.10;99.90;;;;;;4891062;29;20458;-73
2022/12/31 10:12:33;;;;;;;1.67;1.00;;;17.20;99.90;;;;;;4891154;29;20506;-73
2022/12/31 10:15:17;;;;;;;1.97;1.37;;;17.30;99.90;;;;;;4891472;29;20451;-73
2022/12/31 10:17:58;;;;;;;1.10;1.00;;;17.40;99.90;;;;;;4890640;29;20447;-73
2022/12/31 10:20:43;;;;;;;2.23;1.30;;;17.50;99.90;;;;;;4890490;29;21168;-73
2022/12/31 10:23:26;;;;;;;0.90;0.77;;;17.60;99.90;;;;;;4890466;29;20468;-72
2022/12/31 10:26:19;;;;;;;0.90;0.77;;;17.70;99.90;;;;;;4889894;29;20737;-73
2022/12/31 10:28:53;;;;;;;0.80;0.77;;;17.70;99.90;;;;;;4890034;29;20467;-71
2022/12/31 10:31:38;;;;;;;1.00;0.80;;;17.80;99.90;;;;;;4890158;29;20487;-73
2022/12/31 10:34:17;;;;;;;1.77;1.27;;;17.90;99.90;;;;;;4889739;29;20464;-71
2022/12/31 10:36:56;;;;;;;1.63;0.87;;;18.00;99.90;;;;;;4890030;29;20941;-73
2022/12/31 10:39:38;;;;;;;1.40;1.00;;;18.00;99.90;;;;;;4890884;29;20456;-71
2022/12/31 10:45:33;;;;;;;1.40;0.90;;;18.10;99.90;;;;;;5082480;28;20530;-63
2022/12/31 10:48:49;;;;;;;1.00;0.90;;;18.30;99.90;;;;;;5079815;28;20443;-63
2022/12/31 10:51:44;;;;;;;1.27;1.00;;;18.40;99.90;;;;;;5073779;28;20469;-63
2022/12/31 10:54:53;;;;;;;1.47;0.93;;;18.50;99.90;;;;;;5062458;28;20452;-63
2022/12/31 10:57:56;;;;;;;1.60;1.10;;;18.70;99.90;;;;;;5061256;28;20432;-63
2022/12/31 11:00:27;;;;;;;2.23;1.10;;;18.80;99.90;;;;;;5062530;28;20439;-73
2022/12/31 11:03:25;;;;;;;1.40;0.87;;;18.90;99.90;;;;;;5062732;28;20476;-72
2022/12/31 11:06:26;;;;;;;0.80;0.70;;;18.90;99.90;;;;;;5061860;28;20463;-72
2022/12/31 11:09:54;;;;;;;2.23;1.07;;;19.00;99.90;;;;;;5053357;28;20468;-72
2022/12/31 11:12:47;;;;;;;1.20;0.90;;;19.10;99.90;;;;;;5019911;28;20561;-72
2022/12/31 11:15:49;;;;;;;1.37;0.80;;;19.20;99.90;;;;;;5019799;28;20453;-72
2022/12/31 11:18:27;;;;;;;1.63;1.00;;;19.10;99.90;;;;;;5055445;28;20458;-72
2022/12/31 11:21:07;;;;;;;1.63;1.00;;;19.20;99.90;;;;;;5061814;28;20505;-71
2022/12/31 11:23:42;;;;;;;1.20;0.90;;;19.20;99.90;;;;;;5061625;28;20502;-72
2022/12/31 11:26:20;;;;;;;1.13;0.93;;;19.30;99.90;;;;;;5060885;28;20915;-72
2022/12/31 11:29:09;;;;;;;2.23;1.00;;;19.40;99.90;;;;;;5061402;28;20464;-70
2022/12/31 11:31:51;;;;;;;1.60;0.90;;;19.40;99.90;;;;;;5060950;28;20910;-72
2022/12/31 11:34:39;;;;;;;1.33;0.80;;;19.50;99.90;;;;;;5062287;28;20447;-72
2022/12/31 11:37:22;;;;;;;1.33;1.00;;;19.40;99.90;;;;;;5061415;28;20440;-72
2022/12/31 11:39:56;;;;;;;1.10;0.90;;;19.40;99.90;;;;;;5062070;28;20431;-72
2022/12/31 11:42:32;;;;;;;2.10;0.80;;;19.60;99.90;;;;;;5061743;28;20468;-72
2022/12/31 11:45:04;;;;;;;1.23;0.90;;;19.60;99.90;;;;;;5061903;28;20491;-72
2022/12/31 11:47:49;;;;;;;1.43;1.00;;;19.70;99.90;;;;;;5060881;28;20452;-72
2022/12/31 11:50:32;;;;;;;1.03;0.90;;;19.70;99.90;;;;;;5061657;28;20448;-70
2022/12/31 11:53:22;;;;;;;1.67;1.00;;;19.80;99.90;;;;;;5061847;28;20440;-71
2022/12/31 11:55:59;;;;;;;1.10;1.00;;;19.90;99.90;;;;;;5050821;28;21018;-72
2022/12/31 11:58:27;;;;;;;2.40;1.00;;;19.90;99.90;;;;;;5047666;28;20448;-72
2022/12/31 12:00:56;;;;;;;1.00;0.90;;;19.90;99.90;;;;;;5047670;28;20968;-72
2022/12/31 12:03:24;;;;;;;0.90;0.87;;;19.80;99.90;;;;;;5048170;28;20499;-70
2022/12/31 12:05:51;;;;;;;0.77;0.70;;;19.90;99.90;;;;;;5047642;28;20825;-70
2022/12/31 12:08:18;;;;;;;1.73;1.17;;;19.90;99.90;;;;;;5048252;28;20449;-72
2022/12/31 12:10:48;;;;;;;4.00;0.90;;;20.00;99.90;;;;;;5047741;28;20822;-71
2022/12/31 12:13:22;;;;;;;1.03;0.90;;;20.10;99.90;;;;;;5047794;28;20499;-72
2022/12/31 12:15:51;;;;;;;1.10;0.83;;;20.10;99.90;;;;;;5048317;28;20456;-73
2022/12/31 12:18:29;;;;;;;1.60;0.70;;;20.10;99.90;;;;;;5047661;28;20457;-73
2022/12/31 12:21:06;;;;;;;1.47;0.90;;;20.10;99.90;;;;;;5047486;28;20477;-64
2022/12/31 12:23:33;;;;;;;1.17;0.80;;;20.10;99.90;;;;;;5047733;28;20495;-64
2022/12/31 12:26:00;;;;;;;1.40;1.00;;;20.00;99.90;;;;;;5047113;28;20486;-63
2022/12/31 12:28:29;;;;;;;1.30;1.00;;;20.10;99.90;;;;;;5047993;28;20819;-72
2022/12/31 12:30:59;;;;;;;2.30;1.20;;;20.10;99.90;;;;;;5047238;28;20473;-72
2022/12/31 12:33:29;;;;;;;3.20;1.60;;;20.10;99.90;;;;;;5046866;28;20453;-71
2022/12/31 12:36:06;;;;;;;2.20;1.33;;;20.10;99.90;;;;;;5045351;28;20448;-71
2022/12/31 12:38:33;;;;;;;1.67;0.90;;;20.10;99.90;;;;;;5047303;28;20428;-72
2022/12/31 12:41:04;;;;;;;1.00;0.80;;;20.20;99.90;;;;;;5047062;28;20476;-72
2022/12/31 12:43:33;;;;;;;1.13;0.80;;;20.20;99.90;;;;;;5046982;28;20493;-72
2022/12/31 12:46:02;;;;;;;1.10;0.90;;;20.20;99.90;;;;;;5046390;28;20453;-72
2022/12/31 12:48:37;;;;;;;1.30;0.90;;;20.20;99.90;;;;;;5046489;28;20452;-72
2022/12/31 12:51:19;;;;;;;1.20;0.90;;;20.20;99.90;;;;;;5046982;28;20479;-72
2022/12/31 12:53:54;;;;;;;2.00;1.20;;;20.30;99.90;;;;;;5046769;28;20448;-72
2022/12/31 12:56:35;;;;;;;1.03;0.93;;;20.30;99.90;;;;;;5046331;28;20755;-70
2022/12/31 12:59:32;;;;;;;1.50;1.00;;;20.20;99.90;;;;;;5046432;28;20432;-72
2022/12/31 13:02:11;;;;;;;1.37;0.87;;;20.20;99.90;;;;;;5046554;28;20464;-72
2022/12/31 13:05:03;;;;;;;1.30;0.90;;;20.20;99.90;;;;;;5046835;28;20476;-72
2022/12/31 13:07:40;;;;;;;3.10;1.20;;;20.20;99.90;;;;;;5045432;28;20437;-72
2022/12/31 13:10:22;;;;;;;2.30;0.90;;;20.30;99.90;;;;;;5046898;28;20429;-72
2022/12/31 13:12:59;;;;;;;1.00;0.70;;;20.30;99.90;;;;;;5046630;28;20791;-72
2022/12/31 13:15:32;;;;;;;1.90;1.07;;;20.30;99.90;;;;;;5046378;28;20996;-72
2022/12/31 13:18:11;;;;;;;1.50;1.07;;;20.30;99.90;;;;;;5045730;28;20709;-72
2022/12/31 13:20:46;;;;;;;1.50;1.00;;;20.40;99.90;;;;;;5046383;28;20480;-71
2022/12/31 13:23:19;;;;;;;3.80;0.90;;;20.40;99.90;;;;;;5046798;28;20436;-73
2022/12/31 13:25:58;;;;;;;1.20;0.80;;;20.40;99.90;;;;;;5045720;28;20452;-72
2022/12/31 13:28:26;;;;;;;1.30;1.00;;;20.40;99.90;;;;;;5045788;28;20452;-72
2022/12/31 13:30:58;;;;;;;1.10;1.00;;;20.40;99.90;;;;;;5046554;28;20477;-72
2022/12/31 13:33:27;;;;;;;2.03;0.90;;;20.30;99.90;;;;;;5046385;28;20453;-72
2022/12/31 13:35:58;;;;;;;1.30;1.10;;;20.30;99.90;;;;;;5046058;28;20444;-71
2022/12/31 13:38:29;;;;;;;3.70;1.20;;;20.30;99.90;;;;;;5046397;28;20452;-72
2022/12/31 13:41:02;;;;;;;1.50;1.10;;;20.30;99.90;;;;;;5045861;28;20468;-72
2022/12/31 13:43:38;;;;;;;2.90;1.10;;;20.20;99.90;;;;;;5046070;28;20456;-71
2022/12/31 13:46:13;;;;;;;2.60;1.23;;;20.20;99.90;;;;;;5045704;28;20631;-71
2022/12/31 13:48:46;;;;;;;2.53;1.40;;;20.10;99.90;;;;;;5046281;28;20458;-73
2022/12/31 13:51:21;;;;;;;1.50;1.07;;;20.00;99.90;;;;;;5045905;28;20469;-72
2022/12/31 13:53:56;;;;;;;1.20;1.10;;;20.00;99.90;;;;;;5046358;28;20440;-72
2022/12/31 13:56:27;;;;;;;2.60;1.43;;;20.10;99.90;;;;;;5045119;28;20456;-72
2022/12/31 13:59:01;;;;;;;2.10;1.17;;;20.00;99.90;;;;;;5046176;28;20536;-72
2022/12/31 14:01:33;;;;;;;0.97;0.87;;;19.90;99.90;;;;;;5046606;28;20837;-72
2022/12/31 14:04:06;;;;;;;1.20;1.00;;;19.80;99.90;;;;;;5045751;28;20992;-73
2022/12/31 14:06:41;;;;;;;2.93;1.27;;;19.80;99.90;;;;;;5045117;28;20445;-72
2022/12/31 14:09:13;;;;;;;1.57;1.27;;;19.80;99.90;;;;;;5045897;28;20448;-71
2022/12/31 14:11:54;;;;;;;1.60;1.30;;;19.80;99.90;;;;;;5045685;28;20483;-72
2022/12/31 14:14:32;;;;;;;1.90;1.40;;;19.90;99.90;;;;;;5045878;28;20444;-71
2022/12/31 14:17:05;;;;;;;1.47;1.37;;;19.90;99.90;;;;;;5045293;28;20445;-72
2022/12/31 14:19:48;;;;;;;1.43;1.20;;;19.90;99.90;;;;;;5045619;28;20454;-72
2022/12/31 14:22:24;;;;;;;1.37;1.00;;;19.90;99.90;;;;;;5045403;28;20469;-73
2022/12/31 14:24:52;;;;;;;1.80;1.00;;;19.90;99.90;;;;;;5045305;28;20492;-72
2022/12/31 14:27:24;;;;;;;2.50;1.87;;;19.90;99.90;;;;;;5045421;28;20448;-72
2022/12/31 14:29:56;;;;;;;1.40;1.30;;;19.80;99.90;;;;;;5045419;28;20448;-73
2022/12/31 14:33:15;;;;;;;2.90;1.27;;;19.80;99.90;;;;;;5045377;28;20485;-73
2022/12/31 14:36:01;;;;;;;1.83;1.50;;;19.80;99.90;;;;;;5003177;28;20439;-73
2022/12/31 14:38:40;;;;;;;3.63;1.60;;;19.70;99.90;;;;;;5002382;28;20474;-73
2022/12/31 14:41:26;;;;;;;3.07;1.70;;;19.60;99.90;;;;;;5029354;28;21338;-73
2022/12/31 14:44:03;;;;;;;2.37;1.40;;;19.50;99.90;;;;;;5043783;28;20468;-73
2022/12/31 14:46:38;;;;;;;394.17;248.50;;;19.40;99.90;;;;;;5044715;28;20453;-73
2022/12/31 14:49:20;;;;;;;145.90;81.33;;;19.30;99.90;;;;;;5044927;28;20479;-73
2022/12/31 14:51:46;;;;;;;948.43;723.30;;;19.10;99.90;;;;;;5044885;28;20472;-73
2022/12/31 14:54:28;;;;;;;439.57;282.83;;;19.00;99.90;;;;;;5045170;28;20449;-73
2022/12/31 14:56:55;;;;;;;1248.90;801.87;;;18.90;99.90;;;;;;5042381;28;20457;-73
2022/12/31 14:59:26;;;;;;;454.67;271.57;;;18.80;99.90;;;;;;5044390;28;20455;-73
2022/12/31 15:01:54;;;;;;;456.87;268.20;;;18.60;99.90;;;;;;5044685;28;21015;-73
2022/12/31 15:04:42;;;;;;;790.33;482.67;;;18.60;99.90;;;;;;5044914;28;20527;-73
2022/12/31 15:07:16;;;;;;;1165.87;706.83;;;18.50;99.90;;;;;;5043299;28;20437;-73
2022/12/31 15:10:06;;;;;;;776.00;492.73;;;18.40;99.90;;;;;;5045680;28;20444;-72
2022/12/31 15:12:51;;;;;;;357.67;180.63;;;18.30;99.90;;;;;;5044375;28;20475;-72
2022/12/31 15:15:33;;;;;;;519.77;324.20;;;18.30;99.90;;;;;;5044687;28;20429;-72
2022/12/31 15:18:15;;;;;;;251.53;152.77;;;18.20;99.90;;;;;;5043120;28;20460;-72
2022/12/31 15:21:04;;;;;;;424.57;275.43;;;18.10;99.90;;;;;;5044080;28;20476;-72
2022/12/31 15:23:35;;;;;;;146.37;88.50;;;18.00;99.90;;;;;;5043101;28;20638;-72
2022/12/31 15:26:05;;;;;;;113.63;67.57;;;17.90;99.90;;;;;;5044377;28;20487;-72
2022/12/31 15:28:35;;;;;;;75.90;42.50;;;17.90;99.90;;;;;;5045156;28;20460;-72
2022/12/31 15:31:08;;;;;;;59.97;43.00;;;17.80;99.90;;;;;;5046987;28;20469;-72
2022/12/31 15:33:38;;;;;;;521.23;374.93;;;17.70;99.90;;;;;;5041211;28;20815;-72
2022/12/31 15:36:17;;;;;;;267.27;152.47;;;17.70;99.90;;;;;;5042158;28;20453;-70
2022/12/31 15:38:45;;;;;;;310.67;180.93;;;17.50;99.90;;;;;;5038611;28;20459;-71
2022/12/31 15:41:26;;;;;;;336.87;208.43;;;17.50;99.90;;;;;;5030899;28;20484;-73
2022/12/31 15:43:58;;;;;;;115.53;68.53;;;17.30;99.90;;;;;;5028541;28;20465;-73
2022/12/31 15:46:30;;;;;;;149.57;91.00;;;17.30;99.90;;;;;;5028027;28;20478;-72
2022/12/31 15:49:01;;;;;;;838.13;614.37;;;17.20;99.90;;;;;;5028432;28;20457;-72
2022/12/31 15:51:31;;;;;;;606.20;412.23;;;17.10;99.90;;;;;;5028875;28;20482;-73
2022/12/31 15:53:59;;;;;;;632.63;431.67;;;17.00;99.90;;;;;;5028930;28;20446;-73
2022/12/31 15:56:33;;;;;;;493.00;314.40;;;16.90;99.90;;;;;;5027843;28;20972;-73
2022/12/31 15:59:03;;;;;;;234.93;146.10;;;16.90;99.90;;;;;;5038887;28;20441;-71
2022/12/31 16:01:33;;;;;;;140.07;82.30;;;16.80;99.90;;;;;;5048004;28;20473;-73
2022/12/31 16:04:04;;;;;;;196.23;133.27;;;16.70;99.90;;;;;;5047929;28;20437;-71
2022/12/31 16:06:35;;;;;;;68.67;46.83;;;16.60;99.90;;;;;;5047688;28;20488;-73
2022/12/31 16:09:03;;;;;;;93.90;60.40;;;16.60;99.90;;;;;;5048190;28;20441;-72
2022/12/31 16:11:36;;;;;;;349.53;218.50;;;16.50;99.90;;;;;;5047745;28;21001;-73
2022/12/31 16:14:05;;;;;;;282.67;186.17;;;16.40;99.90;;;;;;5047439;28;20456;-73
2022/12/31 16:16:32;;;;;;;339.27;207.97;;;16.40;99.90;;;;;;5047138;28;20492;-72
2022/12/31 16:18:59;;;;;;;165.80;105.30;;;16.30;99.90;;;;;;5047555;28;20448;-72
2022/12/31 16:21:29;;;;;;;178.27;106.13;;;16.30;99.90;;;;;;5047922;28;20480;-70
2022/12/31 16:23:57;;;;;;;213.93;114.67;;;16.30;99.90;;;;;;5047825;28;20997;-71
2022/12/31 16:26:29;;;;;;;123.83;67.67;;;16.20;99.90;;;;;;5047089;28;20503;-71
2022/12/31 16:28:59;;;;;;;117.60;74.20;;;16.20;99.90;;;;;;5047444;28;20453;-71
2022/12/31 16:31:28;;;;;;;155.87;64.43;;;16.20;99.90;;;;;;5047357;28;20534;-71
2022/12/31 16:34:03;;;;;;;93.50;45.23;;;16.20;99.90;;;;;;5047455;28;20453;-73
2022/12/31 16:36:30;;;;;;;92.87;55.23;;;16.20;99.90;;;;;;5047036;28;20778;-73
2022/12/31 16:39:22;;;;;;;167.93;68.10;;;16.20;99.90;;;;;;5047131;28;20449;-73
2022/12/31 16:41:49;;;;;;;192.17;95.80;;;16.20;99.90;;;;;;5045991;28;20477;-72
2022/12/31 16:44:27;;;;;;;14.73;9.30;;;16.10;99.90;;;;;;5046965;28;20564;-73
2022/12/31 16:46:57;;;;;;;16.03;13.03;;;16.10;99.90;;;;;;5046227;28;20455;-72
2022/12/31 16:49:25;;;;;;;35.67;26.87;;;16.10;99.90;;;;;;5046829;28;20514;-72
2022/12/31 16:52:01;;;;;;;47.37;34.50;;;16.10;99.90;;;;;;5047132;28;20472;-73
2022/12/31 16:54:30;;;;;;;515.17;248.90;;;16.10;99.90;;;;;;5047310;28;20424;-73
2022/12/31 16:56:58;;;;;;;525.77;384.43;;;16.10;99.90;;;;;;5046292;28;21104;-71
2022/12/31 16:59:30;;;;;;;95.43;62.63;;;16.00;99.90;;;;;;5047042;28;20453;-73
2022/12/31 17:02:01;;;;;;;13.80;9.07;;;16.00;99.90;;;;;;5046801;28;20476;-70
2022/12/31 17:04:28;;;;;;;15.27;10.17;;;16.00;99.90;;;;;;5046763;28;20532;-72
2022/12/31 17:06:54;;;;;;;13.70;9.20;;;15.90;99.90;;;;;;5046076;28;20452;-72
2022/12/31 17:09:33;;;;;;;24.93;13.43;;;15.90;99.90;;;;;;5047079;28;20448;-72
2022/12/31 17:12:15;;;;;;;14.23;10.77;;;15.80;99.90;;;;;;5046612;28;20476;-73
2022/12/31 17:14:50;;;;;;;20.87;12.40;;;15.80;99.90;;;;;;5046942;28;20457;-71
2022/12/31 17:17:23;;;;;;;10.30;6.90;;;15.80;99.90;;;;;;5045689;28;20448;-72
2022/12/31 17:19:55;;;;;;;12.73;8.40;;;15.70;99.90;;;;;;5046916;28;20479;-72
2022/12/31 17:22:25;;;;;;;8.73;6.27;;;15.70;99.90;;;;;;5046829;28;20551;-73
2022/12/31 17:24:58;;;;;;;11.40;7.37;;;15.60;99.90;;;;;;5043682;28;20461;-72
2022/12/31 17:27:25;;;;;;;25.03;17.63;;;15.60;99.90;;;;;;5044957;28;20811;-72
2022/12/31 17:29:54;;;;;;;24.70;17.87;;;15.60;99.90;;;;;;5045895;28;20484;-71
2022/12/31 17:32:30;;;;;;;24.30;17.07;;;15.50;99.90;;;;;;5046365;28;20481;-71
2022/12/31 17:34:57;;;;;;;26.13;17.77;;;15.30;99.90;;;;;;5046132;28;20483;-73
2022/12/31 17:37:27;;;;;;;26.90;18.93;;;15.30;99.90;;;;;;5045538;28;20453;-70
2022/12/31 17:39:57;;;;;;;29.20;19.23;;;15.30;99.90;;;;;;5044754;28;20812;-70
2022/12/31 17:42:30;;;;;;;26.53;16.50;;;15.20;99.90;;;;;;5045974;28;20857;-73
2022/12/31 17:45:00;;;;;;;22.53;14.17;;;15.10;99.90;;;;;;5047932;28;20452;-71
2022/12/31 17:47:34;;;;;;;13.57;10.13;;;15.10;99.90;;;;;;5065804;28;20456;-71
2022/12/31 17:50:08;;;;;;;15.83;11.47;;;15.10;99.90;;;;;;5066120;28;20456;-72
2022/12/31 17:52:35;;;;;;;24.97;15.40;;;15.10;99.90;;;;;;5065318;28;20471;-72
2022/12/31 17:55:02;;;;;;;30.60;18.07;;;15.00;99.90;;;;;;5066017;28;21164;-71
2022/12/31 17:57:28;;;;;;;30.23;17.60;;;15.00;99.90;;;;;;5065524;28;20447;-72
2022/12/31 17:59:55;;;;;;;50.20;24.43;;;14.90;99.90;;;;;;5065832;28;20543;-72
2022/12/31 18:02:24;;;;;;;56.90;26.40;;;14.90;99.90;;;;;;5065673;28;21133;-72
2022/12/31 18:04:51;;;;;;;49.50;21.30;;;14.80;99.90;;;;;;5046138;28;21220;-72
2022/12/31 18:07:18;;;;;;;35.80;18.10;;;14.70;99.90;;;;;;5045155;28;20955;-72
2022/12/31 18:09:45;;;;;;;20.03;12.97;;;14.70;99.90;;;;;;5045914;28;20464;-72
2022/12/31 18:12:13;;;;;;;18.60;10.20;;;14.70;99.90;;;;;;5045398;28;20483;-71
2022/12/31 18:14:40;;;;;;;12.60;8.80;;;14.70;99.90;;;;;;5045464;28;20802;-71
2022/12/31 18:17:13;;;;;;;9.00;6.27;;;14.60;99.90;;;;;;5042798;28;20463;-71
2022/12/31 18:19:42;;;;;;;10.50;6.50;;;14.60;99.90;;;;;;5045245;28;20459;-72
2022/12/31 18:22:14;;;;;;;10.53;6.93;;;14.50;99.90;;;;;;5044967;28;20848;-72